createdAt,value
2022-12-19T00:00:32.083Z,97494.75
2022-12-19T00:03:00.136Z,97489.91
2022-12-19T00:05:28.555Z,97492.25
2022-12-19T00:07:56.280Z,97487.41
2022-12-19T00:10:25.678Z,97501.09
2022-12-19T00:12:53.450Z,97500.28
2022-12-19T00:15:22.546Z,97495.84
2022-12-19T00:17:50.708Z,97491.97
2022-12-19T00:20:18.881Z,97489.50
2022-12-19T00:22:46.868Z,97492.41
2022-12-19T00:25:14.817Z,97492.28
2022-12-19T00:27:43.837Z,97498.19
2022-12-19T00:30:13.030Z,97500.00
2022-12-19T00:32:42.173Z,97487.53
2022-12-19T00:35:10.455Z,97489.78
2022-12-19T00:37:38.453Z,97491.97
2022-12-19T00:40:12.290Z,97492.53
2022-12-19T00:42:40.081Z,97501.50
2022-12-19T00:45:08.505Z,97498.88
2022-12-19T00:47:36.863Z,97495.56
2022-12-19T00:50:06.979Z,97492.38
2022-12-19T00:52:34.761Z,97485.06
2022-12-19T00:55:02.621Z,97483.13
2022-12-19T00:57:32.718Z,97473.56
2022-12-19T01:00:00.492Z,97477.31
2022-12-19T01:02:28.277Z,97475.66
2022-12-19T01:04:56.488Z,97477.19
2022-12-19T01:07:26.112Z,97485.06
2022-12-19T01:09:53.899Z,97477.59
2022-12-19T01:12:39.174Z,97473.97
2022-12-19T01:15:08.265Z,97467.09
2022-12-19T01:17:38.896Z,97465.44
2022-12-19T01:20:12.498Z,97479.00
2022-12-19T01:22:41.692Z,97473.31
2022-12-19T01:25:09.768Z,97469.84
2022-12-19T01:27:37.898Z,97478.44
2022-12-19T01:30:07.159Z,97479.66
2022-12-19T01:32:36.182Z,97474.56
2022-12-19T01:35:04.109Z,97470.00
2022-12-19T01:37:31.898Z,97481.88
2022-12-19T01:40:01.070Z,97482.56
2022-12-19T01:42:35.634Z,97478.97
2022-12-19T01:45:30.373Z,97461.03
2022-12-19T01:48:16.102Z,97456.56
2022-12-19T01:51:01.061Z,97460.16
2022-12-19T01:53:34.583Z,97470.13
2022-12-19T01:56:10.153Z,97470.94
2022-12-19T01:58:40.891Z,97469.03
2022-12-19T02:01:08.727Z,97457.66
2022-12-19T02:03:39.030Z,97475.66
2022-12-19T02:06:08.936Z,97472.47
2022-12-19T02:08:37.459Z,97476.47
2022-12-19T02:11:06.893Z,97470.69
2022-12-19T02:13:35.278Z,97484.91
2022-12-19T02:16:16.651Z,97466.97
2022-12-19T02:18:53.813Z,97462.38
2022-12-19T02:21:36.992Z,97456.56
2022-12-19T02:24:48.223Z,97459.34
2022-12-19T02:28:06.834Z,97459.19
2022-12-19T02:30:51.804Z,97470.38
2022-12-19T02:33:27.383Z,97473.28
2022-12-19T02:35:58.479Z,97462.91
2022-12-19T02:38:33.993Z,97454.06
2022-12-19T02:41:06.889Z,97451.31
2022-12-19T02:43:40.464Z,97452.66
2022-12-19T02:46:12.521Z,97448.78
2022-12-19T02:48:41.369Z,97449.34
2022-12-19T02:51:09.301Z,97451.81
2022-12-19T02:53:38.321Z,97454.84
2022-12-19T02:56:22.333Z,97461.06
2022-12-19T02:59:05.639Z,97460.09
2022-12-19T03:01:47.688Z,97466.84
2022-12-19T03:04:31.751Z,97472.81
2022-12-19T03:07:05.057Z,97466.69
2022-12-19T03:09:39.108Z,97461.56
2022-12-19T03:12:14.243Z,97479.97
2022-12-19T03:14:46.676Z,97467.78
2022-12-19T03:17:23.244Z,97471.91
2022-12-19T03:19:51.108Z,97460.16
2022-12-19T03:22:19.000Z,97469.47
2022-12-19T03:24:47.102Z,97466.97
2022-12-19T03:27:20.183Z,97478.72
2022-12-19T03:29:53.902Z,97475.56
2022-12-19T03:32:25.664Z,97475.38
2022-12-19T03:34:58.876Z,97472.63
2022-12-19T03:37:33.320Z,97467.59
2022-12-19T03:40:09.358Z,97464.16
2022-12-19T03:42:58.734Z,97472.63
2022-12-19T03:45:32.267Z,97470.22
2022-12-19T03:48:06.904Z,97464.03
2022-12-19T03:50:43.662Z,97448.06
2022-12-19T03:53:22.983Z,97457.63
2022-12-19T03:56:00.112Z,97447.47
2022-12-19T03:58:34.250Z,97451.97
2022-12-19T04:01:04.876Z,97427.66
2022-12-19T04:03:34.656Z,97445.03
2022-12-19T04:06:04.193Z,97450.22
2022-12-19T04:08:34.109Z,97444.50
2022-12-19T04:11:08.650Z,97447.78
2022-12-19T04:13:39.803Z,97447.66
2022-12-19T04:16:16.416Z,97438.06
2022-12-19T04:18:52.608Z,97440.97
2022-12-19T04:21:23.845Z,97439.84
2022-12-19T04:23:56.701Z,97438.38
2022-12-19T04:26:26.237Z,97437.72
2022-12-19T04:28:57.347Z,97442.81
2022-12-19T04:31:25.787Z,97442.41
2022-12-19T04:33:55.041Z,97447.78
2022-12-19T04:36:23.072Z,97436.59
2022-12-19T04:38:51.223Z,97434.63
2022-12-19T04:41:19.102Z,97434.72
2022-12-19T04:43:47.204Z,97438.06
2022-12-19T04:46:15.706Z,97433.59
2022-12-19T04:48:43.572Z,97435.63
2022-12-19T04:51:13.293Z,97428.66
2022-12-19T04:53:41.183Z,97425.09
2022-12-19T04:56:10.556Z,97432.00
2022-12-19T04:58:39.250Z,97429.56
2022-12-19T05:01:09.681Z,97436.88
2022-12-19T05:03:37.814Z,97440.91
2022-12-19T05:06:07.463Z,97436.88
2022-12-19T05:08:37.741Z,97442.81
2022-12-19T05:11:07.210Z,97435.81
2022-12-19T05:13:35.389Z,97432.44
2022-12-19T05:16:05.616Z,97437.34
2022-12-19T05:18:33.820Z,97430.94
2022-12-19T05:21:01.860Z,97425.88
2022-12-19T05:23:30.134Z,97427.47
2022-12-19T05:26:00.783Z,97420.72
2022-12-19T05:28:29.674Z,97409.22
2022-12-19T05:31:04.234Z,97420.91
2022-12-19T05:33:32.058Z,97410.03
2022-12-19T05:35:59.833Z,97416.69
2022-12-19T05:38:28.302Z,97418.66
2022-12-19T05:40:56.202Z,97417.69
2022-12-19T05:43:25.534Z,97422.94
2022-12-19T05:45:53.881Z,97415.69
2022-12-19T05:48:21.626Z,97416.94
2022-12-19T05:50:50.698Z,97413.34
2022-12-19T05:53:23.330Z,97419.44
2022-12-19T05:55:53.719Z,97416.19
2022-12-19T05:58:21.530Z,97432.88
2022-12-19T06:00:50.810Z,97436.22
2022-12-19T06:03:18.624Z,97427.88
2022-12-19T06:05:46.389Z,97424.13
2022-12-19T06:08:14.172Z,97414.72
2022-12-19T06:10:42.377Z,97406.38
2022-12-19T06:13:10.267Z,97417.41
2022-12-19T06:15:38.333Z,97421.03
2022-12-19T06:18:08.085Z,97415.06
2022-12-19T06:20:36.277Z,97432.06
2022-12-19T06:23:04.142Z,97427.47
2022-12-19T06:25:32.019Z,97426.00
2022-12-19T06:28:00.158Z,97424.22
2022-12-19T06:30:28.288Z,97422.34
2022-12-19T06:32:56.065Z,97434.78
2022-12-19T06:35:25.695Z,97423.84
2022-12-19T06:37:57.904Z,97415.88
2022-12-19T06:40:46.072Z,97428.00
2022-12-19T06:43:14.132Z,97426.63
2022-12-19T06:45:42.384Z,97427.34
2022-12-19T06:48:10.533Z,97427.66
2022-12-19T06:50:40.010Z,97418.25
2022-12-19T06:53:07.745Z,97417.00
2022-12-19T06:55:37.473Z,97420.16
2022-12-19T06:58:05.990Z,97412.22
2022-12-19T07:00:38.005Z,97416.09
2022-12-19T07:03:06.091Z,97416.69
2022-12-19T07:05:34.833Z,97417.53
2022-12-19T07:08:04.026Z,97416.44
2022-12-19T07:10:31.966Z,97418.38
2022-12-19T07:12:59.758Z,97413.69
2022-12-19T07:15:28.269Z,97400.66
2022-12-19T07:17:56.491Z,97404.66
2022-12-19T07:20:24.298Z,97405.31
2022-12-19T07:22:54.032Z,97413.53
2022-12-19T07:25:23.691Z,97413.16
2022-12-19T07:27:53.638Z,97412.56
2022-12-19T07:30:22.640Z,97420.44
2022-12-19T07:32:50.390Z,97413.72
2022-12-19T07:35:18.122Z,97413.97
2022-12-19T07:37:45.903Z,97416.28
2022-12-19T07:40:15.173Z,97424.91
2022-12-19T07:42:44.848Z,97423.25
2022-12-19T07:45:13.366Z,97420.81
2022-12-19T07:47:41.192Z,97422.94
2022-12-19T07:50:09.703Z,97415.97
2022-12-19T07:52:37.464Z,97419.06
2022-12-19T07:55:05.730Z,97433.53
2022-12-19T07:57:33.878Z,97436.41
2022-12-19T08:00:03.550Z,97435.63
2022-12-19T08:02:31.841Z,97440.81
2022-12-19T08:04:59.729Z,97434.84
2022-12-19T08:07:28.286Z,97441.47
2022-12-19T08:09:57.433Z,97434.44
2022-12-19T08:12:25.349Z,97436.41
2022-12-19T08:14:57.088Z,97442.06
2022-12-19T08:17:27.296Z,97443.00
2022-12-19T08:19:55.175Z,97448.81
2022-12-19T08:22:23.944Z,97451.28
2022-12-19T08:24:51.860Z,97441.31
2022-12-19T08:27:19.920Z,97451.59
2022-12-19T08:29:48.014Z,97448.38
2022-12-19T08:32:20.807Z,97441.56
2022-12-19T08:34:51.528Z,97445.09
2022-12-19T08:37:19.283Z,97443.91
2022-12-19T08:39:47.435Z,97454.44
2022-12-19T08:42:15.321Z,97452.72
2022-12-19T08:44:43.078Z,97435.81
2022-12-19T08:47:10.916Z,97433.88
2022-12-19T08:49:38.726Z,97422.59
2022-12-19T08:52:07.916Z,97429.13
2022-12-19T08:54:35.785Z,97424.22
2022-12-19T08:57:03.622Z,97430.50
2022-12-19T08:59:32.254Z,97394.91
2022-12-19T09:02:01.317Z,97410.75
2022-12-19T09:05:28.511Z,97412.81
2022-12-19T09:07:19.206Z,97417.47
2022-12-19T09:09:47.186Z,97417.09
2022-12-19T09:12:16.046Z,97412.03
2022-12-19T09:14:44.271Z,97418.66
2022-12-19T09:17:12.209Z,97433.50
2022-12-19T09:19:40.108Z,97428.97
2022-12-19T09:22:10.820Z,97438.38
2022-12-19T09:24:40.484Z,97443.88
2022-12-19T09:27:08.315Z,97443.94
2022-12-19T09:29:36.303Z,97450.72
2022-12-19T09:32:04.574Z,97444.03
2022-12-19T09:34:38.096Z,97449.31
2022-12-19T09:37:08.237Z,97441.53
2022-12-19T09:39:36.535Z,97429.56
2022-12-19T09:42:24.468Z,97434.31
2022-12-19T09:45:06.451Z,97434.38
2022-12-19T09:47:38.975Z,97433.94
2022-12-19T09:50:23.790Z,97431.81
2022-12-19T09:52:58.804Z,97414.91
2022-12-19T09:55:30.504Z,97426.00
2022-12-19T09:58:08.085Z,97426.59
2022-12-19T10:00:40.520Z,97423.69
2022-12-19T10:03:18.785Z,97420.47
2022-12-19T10:07:11.013Z,97434.34
2022-12-19T10:09:00.693Z,97440.47
2022-12-19T10:12:41.104Z,97433.81
2022-12-19T10:14:53.019Z,97439.72
2022-12-19T10:17:28.307Z,97435.44
2022-12-19T10:20:13.318Z,97424.13
2022-12-19T10:22:51.909Z,97415.19
2022-12-19T10:25:30.209Z,97418.84
2022-12-19T10:28:07.623Z,97423.47
2022-12-19T10:30:44.827Z,97399.47
2022-12-19T10:33:22.593Z,97405.94
2022-12-19T10:35:55.536Z,97402.09
2022-12-19T10:38:32.427Z,97404.31
2022-12-19T10:41:16.084Z,97394.50
2022-12-19T10:43:53.938Z,97391.13
2022-12-19T10:46:36.923Z,97382.91
2022-12-19T10:49:14.057Z,97375.41
2022-12-19T10:51:42.964Z,97381.34
2022-12-19T10:54:11.086Z,97392.97
2022-12-19T10:56:38.895Z,97378.22
2022-12-19T10:59:17.426Z,97362.22
2022-12-19T11:01:54.199Z,97381.53
2022-12-19T11:04:32.413Z,97377.19
2022-12-19T11:07:18.178Z,97371.59
2022-12-19T11:10:05.679Z,97370.94
2022-12-19T11:16:56.632Z,97380.50
2022-12-19T11:18:59.939Z,97372.75
2022-12-19T11:29:15.256Z,97373.22
2022-12-19T11:29:40.408Z,97354.47
2022-12-19T11:29:55.808Z,97365.00
2022-12-19T11:30:35.950Z,97352.78
2022-12-19T11:32:42.729Z,97349.00
2022-12-19T11:35:22.759Z,97344.22
2022-12-19T11:37:56.291Z,97313.16
2022-12-19T11:40:34.088Z,97339.91
2022-12-19T11:43:43.277Z,97331.16
2022-12-19T11:46:02.195Z,97322.09
2022-12-19T11:48:37.851Z,97318.59
2022-12-19T11:51:17.600Z,97341.56
2022-12-19T11:53:53.664Z,97333.28
2022-12-19T11:56:25.484Z,97333.97
2022-12-19T11:58:57.340Z,97323.72
2022-12-19T12:01:44.434Z,97331.81
2022-12-19T12:04:33.647Z,97315.47
2022-12-19T12:07:11.751Z,97311.19
2022-12-19T12:14:05.884Z,97321.91
2022-12-19T12:20:03.400Z,97310.53
2022-12-19T12:27:34.775Z,97327.19
2022-12-19T12:31:17.154Z,97295.31
2022-12-19T12:31:22.673Z,97318.59
2022-12-19T12:31:54.263Z,97313.03
2022-12-19T12:32:03.749Z,97297.81
2022-12-19T12:35:09.296Z,97295.19
2022-12-19T12:35:28.860Z,97300.47
2022-12-19T12:39:58.059Z,97291.69
2022-12-19T12:42:40.195Z,97290.72
2022-12-19T12:45:20.845Z,97287.88
2022-12-19T12:47:52.420Z,97262.66
2022-12-19T12:50:24.052Z,97302.75
2022-12-19T12:52:56.307Z,97286.09
2022-12-19T12:55:29.897Z,97277.19
2022-12-19T12:57:58.311Z,97290.84
2022-12-19T13:00:29.920Z,97281.63
2022-12-19T13:03:06.644Z,97275.38
2022-12-19T13:05:42.085Z,97283.44
2022-12-19T13:08:33.069Z,97278.50
2022-12-19T13:11:04.003Z,97248.31
2022-12-19T13:13:53.147Z,97276.19
2022-12-19T13:16:53.442Z,97273.06
2022-12-19T13:19:28.506Z,97256.69
2022-12-19T13:22:18.836Z,97274.22
2022-12-19T13:24:51.188Z,97261.34
2022-12-19T13:27:41.998Z,97272.38
2022-12-19T13:30:18.973Z,97252.25
2022-12-19T13:33:10.171Z,97257.03
2022-12-19T13:39:01.732Z,97259.69
2022-12-19T13:40:00.093Z,97243.84
2022-12-19T13:41:45.259Z,97235.13
2022-12-19T13:44:15.385Z,97268.28
2022-12-19T13:46:44.676Z,97252.09
2022-12-19T13:49:16.255Z,97258.03
2022-12-19T13:51:48.410Z,97268.78
2022-12-19T13:54:22.904Z,97271.56
2022-12-19T13:56:51.339Z,97262.81
2022-12-19T13:59:22.930Z,97265.63
2022-12-19T14:01:53.218Z,97262.34
2022-12-19T14:04:30.258Z,97273.22
2022-12-19T14:07:01.744Z,97290.19
2022-12-19T14:11:28.779Z,97281.28
2022-12-19T14:13:55.523Z,97292.66
2022-12-19T14:15:34.521Z,97286.59
2022-12-19T14:18:21.875Z,97288.09
2022-12-19T14:22:05.734Z,97292.50
2022-12-19T14:23:43.856Z,97291.88
2022-12-19T14:28:24.035Z,97296.97
2022-12-19T14:29:09.369Z,97301.28
2022-12-19T14:31:58.591Z,97300.63
2022-12-19T14:35:03.945Z,97299.63
2022-12-19T14:37:31.656Z,97303.25
2022-12-19T14:40:25.968Z,97295.34
2022-12-19T14:43:56.627Z,97289.06
2022-12-19T14:52:53.663Z,97283.75
2022-12-19T14:54:10.246Z,97300.75
2022-12-19T14:54:31.360Z,97299.09
2022-12-19T14:56:12.224Z,97302.88
2022-12-19T14:58:52.467Z,97289.00
2022-12-19T15:01:23.962Z,97291.69
2022-12-19T15:04:50.817Z,97271.19
2022-12-19T15:07:06.620Z,97300.47
2022-12-19T15:11:07.501Z,97277.00
2022-12-19T15:14:47.899Z,97287.59
2022-12-19T15:15:45.754Z,97280.19
2022-12-19T15:18:23.768Z,97305.56
2022-12-19T15:20:57.796Z,97285.25
2022-12-19T15:23:27.574Z,97284.75
2022-12-19T15:26:06.550Z,97285.56
2022-12-19T15:28:41.819Z,97288.06
2022-12-19T15:31:26.372Z,97278.78
2022-12-19T15:34:32.411Z,97291.09
2022-12-19T15:36:42.131Z,97296.03
2022-12-19T15:39:11.340Z,97299.38
2022-12-19T15:41:39.146Z,97309.06
2022-12-19T15:44:11.112Z,97317.97
2022-12-19T15:46:44.521Z,97312.84
2022-12-19T15:49:17.229Z,97311.06
2022-12-19T15:51:45.390Z,97303.31
2022-12-19T15:54:47.367Z,97291.41
2022-12-19T15:57:02.549Z,97291.41
2022-12-19T15:59:37.699Z,97282.41
2022-12-19T16:02:17.643Z,97290.09
2022-12-19T16:04:47.524Z,97295.22
2022-12-19T16:07:17.800Z,97292.34
2022-12-19T16:09:47.752Z,97289.44
2022-12-19T16:12:18.040Z,97302.38
2022-12-19T16:14:47.571Z,97295.09
2022-12-19T16:17:20.996Z,97287.19
2022-12-19T16:19:49.826Z,97283.03
2022-12-19T16:22:19.736Z,97290.22
2022-12-19T16:24:49.576Z,97278.31
2022-12-19T16:27:23.786Z,97299.38
2022-12-19T16:29:52.384Z,97301.03
2022-12-19T16:32:24.669Z,97298.72
2022-12-19T16:34:53.223Z,97278.38
2022-12-19T16:37:21.199Z,97286.28
2022-12-19T16:39:50.433Z,97306.09
2022-12-19T16:42:19.286Z,97295.50
2022-12-19T16:44:49.062Z,97287.56
2022-12-19T16:47:19.052Z,97291.22
2022-12-19T16:49:47.044Z,97255.19
2022-12-19T16:52:15.422Z,97279.03
2022-12-19T16:54:43.250Z,97291.22
2022-12-19T16:57:20.919Z,97295.69
2022-12-19T16:59:49.946Z,97284.09
2022-12-19T17:02:42.422Z,97281.31
2022-12-19T17:05:19.731Z,97283.06
2022-12-19T17:07:48.024Z,97285.91
2022-12-19T17:10:19.963Z,97286.59
2022-12-19T17:12:53.563Z,97274.28
2022-12-19T17:15:28.158Z,97269.94
2022-12-19T17:17:58.152Z,97280.69
2022-12-19T17:20:29.163Z,97285.31
2022-12-19T17:22:57.045Z,97262.66
2022-12-19T17:25:26.374Z,97283.31
2022-12-19T17:27:56.826Z,97282.41
2022-12-19T17:30:24.728Z,97276.28
2022-12-19T17:32:55.711Z,97270.66
2022-12-19T17:35:28.246Z,97280.41
2022-12-19T17:37:58.239Z,97279.44
2022-12-19T17:40:27.775Z,97289.97
2022-12-19T17:42:57.552Z,97295.31
2022-12-19T17:45:27.136Z,97275.84
2022-12-19T17:48:02.256Z,97283.97
2022-12-19T17:50:33.646Z,97282.13
2022-12-19T17:53:03.080Z,97279.22
2022-12-19T17:55:31.867Z,97280.19
2022-12-19T17:58:01.100Z,97285.78
2022-12-19T18:00:31.231Z,97272.22
2022-12-19T18:03:02.957Z,97277.50
2022-12-19T18:05:35.848Z,97278.50
2022-12-19T18:08:05.029Z,97268.25
2022-12-19T18:10:33.575Z,97267.94
2022-12-19T18:13:02.778Z,97292.66
2022-12-19T18:15:30.655Z,97278.19
2022-12-19T18:17:58.815Z,97274.88
2022-12-19T18:20:31.887Z,97271.94
2022-12-19T18:23:01.551Z,97278.72
2022-12-19T18:25:32.071Z,97271.31
2022-12-19T18:28:00.250Z,97265.03
2022-12-19T18:30:29.489Z,97275.59
2022-12-19T18:32:59.855Z,97281.38
2022-12-19T18:35:32.519Z,97276.94
2022-12-19T18:38:01.845Z,97277.75
2022-12-19T18:40:31.928Z,97267.03
2022-12-19T18:43:00.048Z,97264.38
2022-12-19T18:45:35.126Z,97263.94
2022-12-19T18:48:05.266Z,97272.31
2022-12-19T18:50:33.321Z,97257.63
2022-12-19T18:53:01.730Z,97256.47
2022-12-19T18:55:32.370Z,97261.06
2022-12-19T18:58:00.324Z,97261.56
2022-12-19T19:00:30.129Z,97244.53
2022-12-19T19:02:59.978Z,97247.19
2022-12-19T19:05:30.972Z,97254.13
2022-12-19T19:07:59.049Z,97249.66
2022-12-19T19:10:30.208Z,97250.81
2022-12-19T19:13:02.729Z,97260.69
2022-12-19T19:15:36.301Z,97251.13
2022-12-19T19:18:05.974Z,97264.97
2022-12-19T19:20:37.320Z,97264.81
2022-12-19T19:23:08.488Z,97258.34
2022-12-19T19:25:36.573Z,97255.91
2022-12-19T19:28:05.826Z,97248.16
2022-12-19T19:30:38.228Z,97214.81
2022-12-19T19:33:11.616Z,97239.38
2022-12-19T19:35:39.860Z,97245.50
2022-12-19T19:38:09.937Z,97235.41
2022-12-19T19:40:38.794Z,97245.16
2022-12-19T19:43:06.986Z,97224.50
2022-12-19T19:45:42.768Z,97241.69
2022-12-19T19:48:11.300Z,97239.88
2022-12-19T19:50:39.245Z,97245.97
2022-12-19T19:53:07.053Z,97233.59
2022-12-19T19:55:34.962Z,97244.50
2022-12-19T19:58:02.858Z,97237.91
2022-12-19T20:00:30.662Z,97233.63
2022-12-19T20:03:05.581Z,97229.00
2022-12-19T20:05:35.948Z,97227.00
2022-12-19T20:08:03.791Z,97232.28
2022-12-19T20:10:31.795Z,97230.34
2022-12-19T20:12:59.879Z,97235.41
2022-12-19T20:15:27.760Z,97234.63
2022-12-19T20:17:55.629Z,97232.78
2022-12-19T20:20:25.245Z,97230.16
2022-12-19T20:22:53.221Z,97235.59
2022-12-19T20:25:21.079Z,97223.25
2022-12-19T20:27:48.914Z,97190.25
2022-12-19T20:30:18.162Z,97213.66
2022-12-19T20:32:46.234Z,97196.00
2022-12-19T20:35:14.971Z,97206.53
2022-12-19T20:37:44.777Z,97219.91
2022-12-19T20:40:13.170Z,97218.72
2022-12-19T20:42:41.008Z,97209.53
2022-12-19T20:45:09.512Z,97212.00
2022-12-19T20:47:37.704Z,97210.34
2022-12-19T20:50:07.584Z,97200.31
2022-12-19T20:52:35.526Z,97190.13
2022-12-19T20:55:05.769Z,97190.13
2022-12-19T20:57:33.613Z,97193.91
2022-12-19T21:00:01.498Z,97213.75
2022-12-19T21:02:46.253Z,97221.81
2022-12-19T21:05:17.432Z,97215.16
2022-12-19T21:07:45.372Z,97223.41
2022-12-19T21:10:14.733Z,97177.00
2022-12-19T21:12:47.572Z,97216.81
2022-12-19T21:15:15.932Z,97195.84
2022-12-19T21:17:43.799Z,97218.09
2022-12-19T21:20:12.413Z,97222.72
2022-12-19T21:22:40.191Z,97220.25
2022-12-19T21:25:08.526Z,97212.81
2022-12-19T21:27:37.749Z,97210.34
2022-12-19T21:30:07.536Z,97203.94
2022-12-19T21:32:35.915Z,97199.97
2022-12-19T21:35:03.936Z,97209.34
2022-12-19T21:37:32.104Z,97211.47
2022-12-19T21:39:59.978Z,97193.69
2022-12-19T21:42:27.830Z,97202.09
2022-12-19T21:44:57.030Z,97202.94
2022-12-19T21:47:24.848Z,97217.78
2022-12-19T21:49:52.711Z,97193.69
2022-12-19T21:52:20.507Z,97221.09
2022-12-19T21:54:48.354Z,97199.00
2022-12-19T21:57:16.221Z,97182.28
2022-12-19T21:59:44.162Z,97202.59
2022-12-19T22:02:13.788Z,97195.50
2022-12-19T22:04:41.742Z,97197.88
2022-12-19T22:07:09.940Z,97203.94
2022-12-19T22:09:37.925Z,97211.22
2022-12-19T22:12:06.260Z,97204.78
2022-12-19T22:14:34.256Z,97149.31
2022-12-19T22:17:02.165Z,97208.41
2022-12-19T22:19:31.663Z,97193.41
2022-12-19T22:21:59.840Z,97211.47
2022-12-19T22:24:27.832Z,97219.91
2022-12-19T22:26:55.900Z,97211.81
2022-12-19T22:29:24.132Z,97223.16
2022-12-19T22:31:52.227Z,97215.38
2022-12-19T22:34:22.578Z,97218.00
2022-12-19T22:36:51.775Z,97208.25
2022-12-19T22:39:22.462Z,97190.84
2022-12-19T22:41:50.678Z,97217.13
2022-12-19T22:44:20.793Z,97204.59
2022-12-19T22:46:49.251Z,97138.03
2022-12-19T22:49:17.744Z,97207.72
2022-12-19T22:51:45.744Z,97213.63
2022-12-19T22:54:15.030Z,97191.13
2022-12-19T22:56:42.871Z,97195.13
2022-12-19T22:59:12.974Z,97197.59
2022-12-19T23:01:43.334Z,97202.75
2022-12-19T23:04:14.360Z,97212.44
2022-12-19T23:06:42.964Z,97212.28
2022-12-19T23:09:16.099Z,97214.28
2022-12-19T23:11:47.367Z,97206.03
2022-12-19T23:14:17.211Z,97211.66
2022-12-19T23:16:45.719Z,97206.50
2022-12-19T23:19:14.948Z,97197.09
2022-12-19T23:21:42.924Z,97206.47
2022-12-19T23:24:12.053Z,97192.03
2022-12-19T23:26:41.379Z,97179.88
2022-12-19T23:29:11.537Z,97182.16
2022-12-19T23:31:40.856Z,97181.53
2022-12-19T23:34:10.303Z,97163.13
2022-12-19T23:39:26.548Z,97179.56
2022-12-19T23:41:55.656Z,97197.66
2022-12-19T23:44:23.663Z,97194.53
2022-12-19T23:46:51.532Z,97200.66
2022-12-19T23:49:19.332Z,97183.47
2022-12-19T23:51:47.148Z,97170.25
2022-12-19T23:54:15.017Z,97177.53
2022-12-19T23:56:42.810Z,97194.03
2022-12-19T23:59:12.046Z,97177.22
